Time;durP1;ratioP1;P1;durP2;ratioP2;P2;SDS_P1;SDS_P2;PMS_P1;PMS_P2;Temp;Humidity;BMP_temperature;BMP_pressure;BME280_temperature;BME280_humidity;BME280_pressure;Samples;Min_cycle;Max_cycle;Signal;HPM_P1;HPM_P2
2021/01/26 00:01:58;;;;;;;16.90;5.40;;;3.10;99.90;;;;;;4127887;28;20038;-75
2021/01/26 00:03:59;;;;;;;13.98;3.60;;;3.20;99.90;;;;;;4126048;28;20038;-74
2021/01/26 00:05:59;;;;;;;11.10;4.68;;;3.30;99.90;;;;;;4123575;28;20033;-74
2021/01/26 00:08:00;;;;;;;8.15;3.85;;;3.20;99.90;;;;;;4119472;28;20046;-75
2021/01/26 00:10:01;;;;;;;9.88;3.53;;;3.20;99.90;;;;;;4123236;28;20034;-75
2021/01/26 00:12:01;;;;;;;11.02;4.43;;;3.20;99.90;;;;;;4122820;28;20027;-75
2021/01/26 00:14:02;;;;;;;13.88;4.43;;;3.20;99.90;;;;;;4127934;28;20176;-75
2021/01/26 00:16:04;;;;;;;13.48;6.00;;;3.30;99.90;;;;;;4141974;28;20061;-75
2021/01/26 00:18:05;;;;;;;10.52;3.90;;;3.40;99.90;;;;;;4121809;28;20162;-75
2021/01/26 00:20:08;;;;;;;16.30;6.43;;;3.30;99.90;;;;;;4120323;28;20085;-74
2021/01/26 00:22:09;;;;;;;15.35;5.00;;;3.30;99.90;;;;;;4121398;28;20117;-75
2021/01/26 00:24:10;;;;;;;13.80;4.75;;;3.30;99.90;;;;;;4122010;28;20383;-75
2021/01/26 00:26:11;;;;;;;9.93;4.03;;;3.30;99.90;;;;;;4121172;28;20548;-75
2021/01/26 00:28:14;;;;;;;9.00;4.10;;;3.20;99.90;;;;;;4128161;28;20054;-75
2021/01/26 00:30:18;;;;;;;16.40;4.90;;;3.20;99.90;;;;;;4126275;28;20105;-75
2021/01/26 00:32:18;;;;;;;7.65;3.28;;;3.10;99.90;;;;;;4122585;28;20065;-75
2021/01/26 00:34:19;;;;;;;12.23;3.25;;;3.00;99.90;;;;;;4121757;28;20037;-75
2021/01/26 00:36:19;;;;;;;12.07;3.30;;;3.00;99.90;;;;;;4117270;28;20039;-75
2021/01/26 00:38:21;;;;;;;9.38;2.95;;;3.00;99.90;;;;;;4114615;28;20042;-74
2021/01/26 00:40:21;;;;;;;8.00;3.08;;;3.00;99.90;;;;;;4124815;28;20517;-75
2021/01/26 00:42:22;;;;;;;9.90;3.88;;;3.00;99.90;;;;;;4126828;28;20034;-76
2021/01/26 00:44:23;;;;;;;7.97;3.45;;;2.90;99.90;;;;;;4125317;28;20437;-75
2021/01/26 00:46:23;;;;;;;10.10;3.00;;;2.80;99.90;;;;;;4122050;28;20114;-75
2021/01/26 00:48:24;;;;;;;15.68;4.45;;;2.70;99.90;;;;;;4123682;28;20050;-75
2021/01/26 00:50:26;;;;;;;8.02;3.15;;;2.70;99.90;;;;;;4127992;28;20042;-75
2021/01/26 00:52:27;;;;;;;10.98;5.00;;;2.70;99.90;;;;;;4122233;28;20065;-75
2021/01/26 00:54:27;;;;;;;15.05;4.07;;;2.60;99.90;;;;;;4126587;28;20030;-75
2021/01/26 00:56:31;;;;;;;16.00;5.85;;;2.70;99.90;;;;;;4116190;28;20042;-75
2021/01/26 00:58:32;;;;;;;14.68;3.85;;;2.80;99.90;;;;;;4116804;28;20039;-75
2021/01/26 01:00:35;;;;;;;17.75;5.25;;;2.90;99.90;;;;;;4126981;28;20038;-75
2021/01/26 01:02:35;;;;;;;13.77;4.45;;;3.00;99.90;;;;;;4141413;28;20041;-75
2021/01/26 01:04:36;;;;;;;13.25;4.15;;;3.00;99.90;;;;;;4128700;28;20042;-75
2021/01/26 01:06:37;;;;;;;19.00;4.45;;;3.00;99.90;;;;;;4125637;28;20031;-75
2021/01/26 01:08:37;;;;;;;11.02;3.70;;;3.00;99.90;;;;;;4124872;28;20121;-75
2021/01/26 01:10:38;;;;;;;11.48;4.40;;;3.00;99.90;;;;;;4124471;28;20031;-74
2021/01/26 01:12:39;;;;;;;14.95;4.00;;;3.10;99.90;;;;;;4122352;28;20034;-75
2021/01/26 01:14:40;;;;;;;7.22;3.28;;;3.00;99.90;;;;;;4121509;28;20073;-75
2021/01/26 01:16:41;;;;;;;15.40;3.95;;;3.10;99.90;;;;;;4120375;28;20092;-75
2021/01/26 01:18:41;;;;;;;12.95;3.10;;;3.20;99.90;;;;;;4127140;28;20054;-75
2021/01/26 01:20:42;;;;;;;8.10;3.67;;;3.20;99.90;;;;;;4127561;28;20085;-75
2021/01/26 01:22:42;;;;;;;13.60;4.50;;;3.20;99.90;;;;;;4123212;28;20113;-75
2021/01/26 01:24:43;;;;;;;8.05;3.38;;;3.20;99.90;;;;;;4109297;28;20077;-75
2021/01/26 01:26:44;;;;;;;16.30;3.30;;;3.20;99.90;;;;;;4120815;28;20483;-75
2021/01/26 01:28:44;;;;;;;15.93;3.80;;;3.20;99.90;;;;;;4122922;28;20031;-75
2021/01/26 01:30:45;;;;;;;17.25;3.83;;;3.20;99.90;;;;;;4120186;28;20433;-76
2021/01/26 01:32:46;;;;;;;10.50;3.20;;;3.10;99.90;;;;;;4120965;28;20030;-75
2021/01/26 01:34:46;;;;;;;11.38;3.67;;;3.10;99.90;;;;;;4120509;28;20030;-75
2021/01/26 01:36:47;;;;;;;12.65;4.05;;;3.10;99.90;;;;;;4126996;28;20069;-75
2021/01/26 01:38:47;;;;;;;7.75;2.53;;;3.10;99.90;;;;;;4126832;28;20179;-74
2021/01/26 01:40:52;;;;;;;6.90;3.33;;;3.10;99.90;;;;;;4123570;28;20053;-75
2021/01/26 01:42:53;;;;;;;10.98;4.25;;;3.20;99.90;;;;;;4127684;28;20108;-75
2021/01/26 01:44:54;;;;;;;7.20;2.38;;;3.20;99.90;;;;;;4134134;28;20039;-75
2021/01/26 01:46:57;;;;;;;11.95;3.33;;;3.20;99.90;;;;;;4117627;28;20031;-75
2021/01/26 01:49:01;;;;;;;13.15;3.33;;;3.20;99.90;;;;;;4115420;28;20066;-75
2021/01/26 01:51:07;;;;;;;8.95;2.78;;;3.20;99.90;;;;;;4127584;28;20038;-76
2021/01/26 01:53:31;;;;;;;11.55;3.40;;;3.10;99.90;;;;;;4128115;28;20018;-76
2021/01/26 01:55:35;;;;;;;15.63;4.53;;;3.10;99.90;;;;;;4128523;28;20090;-76
2021/01/26 01:57:43;;;;;;;10.40;2.75;;;3.00;99.90;;;;;;4129649;28;20117;-75
2021/01/26 01:59:51;;;;;;;6.50;3.08;;;3.00;99.90;;;;;;4126445;28;20308;-75
2021/01/26 02:01:52;;;;;;;8.02;2.80;;;2.90;99.90;;;;;;4128069;28;20231;-75
2021/01/26 02:03:57;;;;;;;13.05;3.40;;;2.90;99.90;;;;;;4127495;28;20363;-75
2021/01/26 02:05:59;;;;;;;10.27;3.08;;;2.80;99.90;;;;;;4126895;28;20034;-75
2021/01/26 02:08:00;;;;;;;7.30;3.00;;;2.80;99.90;;;;;;4127896;28;20042;-75
2021/01/26 02:10:02;;;;;;;12.60;3.28;;;2.80;99.90;;;;;;4127463;28;20037;-76
2021/01/26 02:12:05;;;;;;;9.63;3.05;;;2.70;99.90;;;;;;4119531;28;20027;-76
2021/01/26 02:14:05;;;;;;;8.38;2.55;;;2.60;99.90;;;;;;4127094;28;20065;-76
2021/01/26 02:16:06;;;;;;;15.38;3.42;;;2.60;99.90;;;;;;4132160;28;20470;-75
2021/01/26 02:18:22;;;;;;;10.32;3.40;;;2.60;99.90;;;;;;4126067;28;20051;-76
2021/01/26 02:20:48;;;;;;;8.60;2.80;;;2.60;99.90;;;;;;4124706;28;20047;-75
2021/01/26 02:23:00;;;;;;;12.40;4.03;;;2.50;99.90;;;;;;4139032;28;20037;-75
2021/01/26 02:25:31;;;;;;;9.88;3.30;;;2.60;99.90;;;;;;4120853;28;20030;-76
2021/01/26 02:27:49;;;;;;;12.88;4.28;;;2.60;99.90;;;;;;4120147;28;20030;-75
2021/01/26 02:30:19;;;;;;;11.48;3.33;;;2.60;99.90;;;;;;4122481;28;20044;-76
2021/01/26 02:32:49;;;;;;;12.90;4.35;;;2.60;99.90;;;;;;4115430;28;20359;-75
2021/01/26 02:35:04;;;;;;;11.02;3.28;;;2.70;99.90;;;;;;4136013;28;20057;-75
2021/01/26 02:37:14;;;;;;;11.00;3.92;;;2.60;99.90;;;;;;4111591;28;20063;-75
2021/01/26 02:39:32;;;;;;;12.40;4.15;;;2.60;99.90;;;;;;4116798;28;20027;-76
2021/01/26 02:42:11;;;;;;;27.02;6.75;;;2.60;99.90;;;;;;4100969;28;20032;-75
2021/01/26 02:44:31;;;;;;;7.60;2.75;;;2.60;99.90;;;;;;4125959;28;20078;-75
2021/01/26 02:47:18;;;;;;;9.10;3.15;;;2.60;99.90;;;;;;4117434;28;20060;-75
2021/01/26 02:49:26;;;;;;;8.77;2.83;;;2.60;99.90;;;;;;4119004;28;20027;-75
2021/01/26 02:51:45;;;;;;;16.27;3.38;;;2.70;99.90;;;;;;4128793;28;20031;-76
2021/01/26 02:54:06;;;;;;;6.32;2.88;;;2.70;99.90;;;;;;4128756;28;20371;-75
2021/01/26 02:56:35;;;;;;;11.60;3.33;;;2.70;99.90;;;;;;4124277;28;20030;-75
2021/01/26 02:58:58;;;;;;;13.75;3.08;;;2.70;99.90;;;;;;4109735;28;20034;-75
2021/01/26 03:01:01;;;;;;;9.73;2.88;;;2.70;99.90;;;;;;4143568;28;20032;-75
2021/01/26 03:03:26;;;;;;;19.25;4.65;;;2.80;99.90;;;;;;4126119;28;20022;-75
2021/01/26 03:06:03;;;;;;;9.20;3.05;;;2.80;99.90;;;;;;4123947;28;20434;-75
2021/01/26 03:08:08;;;;;;;11.90;3.33;;;2.80;99.90;;;;;;4122885;28;20492;-75
2021/01/26 03:10:16;;;;;;;11.75;3.38;;;2.70;99.90;;;;;;4122638;28;20113;-75
2021/01/26 03:12:28;;;;;;;13.15;3.15;;;2.80;99.90;;;;;;4128357;28;20030;-75
2021/01/26 03:15:12;;;;;;;10.43;2.65;;;2.80;99.90;;;;;;4118720;28;20565;-75
2021/01/26 03:17:29;;;;;;;14.98;3.60;;;3.00;99.90;;;;;;4107027;28;20041;-75
2021/01/26 03:19:34;;;;;;;8.13;2.50;;;3.00;99.90;;;;;;4121509;28;20034;-75
2021/01/26 03:21:37;;;;;;;9.50;3.65;;;2.90;99.90;;;;;;4119095;28;20451;-75
2021/01/26 03:23:41;;;;;;;18.75;3.28;;;2.90;99.90;;;;;;4119869;28;20394;-75
2021/01/26 03:25:49;;;;;;;9.65;3.17;;;2.80;99.90;;;;;;4126397;28;20121;-75
2021/01/26 03:27:54;;;;;;;5.50;3.45;;;2.90;99.90;;;;;;4130915;28;20482;-75
2021/01/26 03:29:58;;;;;;;11.60;3.13;;;2.90;99.90;;;;;;4130442;28;20121;-75
2021/01/26 03:32:05;;;;;;;9.43;2.80;;;2.90;99.90;;;;;;4129307;28;20018;-75
2021/01/26 03:34:06;;;;;;;10.23;3.13;;;2.90;99.90;;;;;;4130310;28;20033;-75
2021/01/26 03:36:06;;;;;;;13.25;3.20;;;2.90;99.90;;;;;;4129828;28;20398;-75
2021/01/26 03:38:16;;;;;;;12.73;3.17;;;2.90;99.90;;;;;;4130551;28;20029;-75
2021/01/26 03:40:18;;;;;;;8.23;2.60;;;2.90;99.90;;;;;;4128457;28;20033;-76
2021/01/26 03:42:23;;;;;;;7.38;2.47;;;2.90;99.90;;;;;;4126796;28;20029;-75
2021/01/26 03:44:24;;;;;;;10.85;2.95;;;2.90;99.90;;;;;;4120447;28;20406;-75
2021/01/26 03:46:34;;;;;;;8.82;3.60;;;2.80;99.90;;;;;;4130177;28;20031;-76
2021/01/26 03:49:03;;;;;;;21.10;4.07;;;2.90;99.90;;;;;;4130123;28;20085;-76
2021/01/26 03:51:15;;;;;;;6.97;2.92;;;2.90;99.90;;;;;;4108840;28;20085;-75
2021/01/26 03:54:03;;;;;;;8.95;3.08;;;2.90;99.90;;;;;;4130459;28;20034;-75
2021/01/26 03:56:36;;;;;;;9.73;4.03;;;3.00;99.90;;;;;;4111441;28;20121;-75
2021/01/26 03:58:54;;;;;;;11.65;3.95;;;3.00;99.90;;;;;;4128676;28;20027;-75
2021/01/26 04:01:11;;;;;;;16.88;3.67;;;3.00;99.90;;;;;;4117307;28;20033;-76
2021/01/26 04:03:18;;;;;;;9.65;3.42;;;3.00;99.90;;;;;;4129620;28;20113;-75
2021/01/26 04:05:26;;;;;;;14.63;3.67;;;3.00;99.90;;;;;;4129424;28;20061;-76
2021/01/26 04:07:37;;;;;;;8.20;3.67;;;2.90;99.90;;;;;;4126055;28;20053;-75
2021/01/26 04:09:47;;;;;;;15.93;3.75;;;2.90;99.90;;;;;;4127884;28;20031;-75
2021/01/26 04:11:47;;;;;;;14.43;3.72;;;3.00;99.90;;;;;;4142226;28;20081;-75
2021/01/26 04:13:52;;;;;;;26.02;5.45;;;3.20;99.90;;;;;;4126914;28;20033;-76
2021/01/26 04:15:57;;;;;;;12.73;2.75;;;3.30;99.90;;;;;;4128860;28;20094;-75
2021/01/26 04:17:58;;;;;;;11.40;2.85;;;3.40;99.90;;;;;;4110620;28;20033;-75
2021/01/26 04:20:06;;;;;;;11.75;3.05;;;3.50;99.90;;;;;;4123179;28;20401;-75
2021/01/26 04:22:09;;;;;;;15.77;3.47;;;3.50;99.90;;;;;;4122165;28;20448;-75
2021/01/26 04:24:09;;;;;;;14.25;3.55;;;3.40;99.90;;;;;;4119778;28;20023;-76
2021/01/26 04:26:16;;;;;;;7.72;3.20;;;3.40;99.90;;;;;;4133335;28;20022;-75
2021/01/26 04:28:31;;;;;;;12.82;4.10;;;3.50;99.90;;;;;;4130279;28;20038;-75
2021/01/26 04:30:32;;;;;;;10.10;3.85;;;3.50;99.90;;;;;;4148559;28;20026;-75
2021/01/26 04:32:32;;;;;;;15.40;3.83;;;3.50;99.90;;;;;;4124775;28;20031;-76
2021/01/26 04:34:33;;;;;;;11.13;3.30;;;3.60;99.90;;;;;;4128795;28;20035;-75
2021/01/26 04:36:33;;;;;;;10.20;3.13;;;3.60;99.90;;;;;;4128476;28;20065;-75
2021/01/26 04:38:34;;;;;;;21.20;7.28;;;3.70;99.90;;;;;;4127529;28;20398;-76
2021/01/26 04:40:35;;;;;;;6.15;2.75;;;3.70;99.90;;;;;;4127941;28;20035;-75
2021/01/26 04:42:40;;;;;;;11.45;3.83;;;3.80;99.90;;;;;;4126385;28;20034;-76
2021/01/26 04:44:40;;;;;;;8.43;3.33;;;3.80;99.90;;;;;;4126249;28;20030;-75
2021/01/26 04:47:05;;;;;;;17.95;3.95;;;3.70;99.90;;;;;;4124457;28;20183;-75
2021/01/26 04:49:24;;;;;;;15.80;3.80;;;3.70;99.90;;;;;;4124073;28;20085;-75
2021/01/26 04:51:43;;;;;;;9.38;3.53;;;3.60;99.90;;;;;;4124421;28;20492;-75
2021/01/26 04:53:50;;;;;;;15.23;4.05;;;3.70;99.90;;;;;;4111360;28;20489;-75
2021/01/26 04:56:01;;;;;;;10.18;3.25;;;3.80;99.90;;;;;;4125348;28;20035;-75
2021/01/26 04:58:15;;;;;;;12.80;3.72;;;3.70;99.90;;;;;;4113217;28;20015;-75
2021/01/26 05:00:30;;;;;;;13.70;3.78;;;3.60;99.90;;;;;;4118803;28;20548;-75
2021/01/26 05:03:05;;;;;;;9.18;3.80;;;3.40;99.90;;;;;;4136538;28;20034;-75
2021/01/26 05:05:09;;;;;;;15.02;3.42;;;3.30;99.90;;;;;;4120182;28;20149;-75
2021/01/26 05:07:18;;;;;;;18.60;3.22;;;3.30;99.90;;;;;;4126283;28;20033;-76
2021/01/26 05:09:28;;;;;;;9.23;3.92;;;3.30;99.90;;;;;;4123620;28;20022;-75
2021/01/26 05:11:32;;;;;;;14.35;3.80;;;3.40;99.90;;;;;;4119212;28;20030;-75
2021/01/26 05:13:40;;;;;;;8.05;3.60;;;3.40;99.90;;;;;;4114615;28;20504;-75
2021/01/26 05:15:46;;;;;;;13.93;4.38;;;3.40;99.90;;;;;;4128139;28;20038;-75
2021/01/26 05:17:54;;;;;;;15.00;3.83;;;3.40;99.90;;;;;;4123740;28;20047;-76
2021/01/26 05:20:15;;;;;;;15.10;5.00;;;3.40;99.90;;;;;;4116268;28;20396;-76
2021/01/26 05:22:33;;;;;;;9.65;3.00;;;3.50;99.90;;;;;;4122535;28;20117;-75
2021/01/26 05:24:57;;;;;;;12.90;3.28;;;3.60;99.90;;;;;;4114798;28;20026;-75
2021/01/26 05:27:01;;;;;;;13.60;4.63;;;3.60;99.90;;;;;;4120778;28;20093;-75
2021/01/26 05:29:01;;;;;;;15.23;3.85;;;3.60;99.90;;;;;;4125608;28;20085;-75
2021/01/26 05:31:07;;;;;;;13.90;3.22;;;3.60;99.90;;;;;;4124146;28;20046;-75
2021/01/26 05:33:12;;;;;;;25.40;5.25;;;3.60;99.90;;;;;;4138374;28;20118;-76
2021/01/26 05:35:15;;;;;;;10.63;3.50;;;3.70;99.90;;;;;;4125765;28;20426;-76
2021/01/26 05:37:15;;;;;;;19.60;4.95;;;3.60;99.90;;;;;;4126142;28;20030;-74
2021/01/26 05:39:26;;;;;;;19.55;3.70;;;3.50;99.90;;;;;;4124101;28;20692;-75
2021/01/26 05:41:29;;;;;;;12.88;3.28;;;3.50;99.90;;;;;;4122901;28;20026;-75
2021/01/26 05:43:32;;;;;;;9.60;3.40;;;3.50;99.90;;;;;;4124664;28;20027;-75
2021/01/26 05:45:40;;;;;;;8.82;3.05;;;3.60;99.90;;;;;;4123628;28;20390;-75
2021/01/26 05:47:41;;;;;;;13.48;5.60;;;3.50;99.90;;;;;;4124554;28;20030;-75
2021/01/26 05:49:41;;;;;;;16.08;3.25;;;3.50;99.90;;;;;;4124113;28;20414;-74
2021/01/26 05:51:43;;;;;;;13.05;3.38;;;3.40;99.90;;;;;;4124453;28;20066;-75
2021/01/26 05:53:50;;;;;;;8.23;3.17;;;3.40;99.90;;;;;;4106622;28;20093;-75
2021/01/26 05:56:08;;;;;;;6.95;3.08;;;3.50;99.90;;;;;;4123263;28;20073;-75
2021/01/26 05:58:12;;;;;;;11.50;3.67;;;3.50;99.90;;;;;;4114556;28;20584;-76
2021/01/26 06:00:25;;;;;;;11.18;3.10;;;3.60;99.90;;;;;;4118062;28;20019;-75
2021/01/26 06:02:25;;;;;;;18.30;3.85;;;3.60;99.90;;;;;;4115178;28;20022;-75
2021/01/26 06:04:33;;;;;;;18.75;3.55;;;3.60;99.90;;;;;;4127077;28;20524;-75
2021/01/26 06:06:52;;;;;;;12.73;3.30;;;3.60;99.90;;;;;;4123713;28;20047;-74
2021/01/26 06:08:55;;;;;;;16.08;5.18;;;3.60;99.90;;;;;;4121848;28;20026;-74
2021/01/26 06:10:57;;;;;;;14.30;4.38;;;3.50;99.90;;;;;;4120019;28;20030;-75
2021/01/26 06:12:59;;;;;;;14.98;4.10;;;3.50;99.90;;;;;;4119295;28;20033;-75
2021/01/26 06:14:59;;;;;;;18.27;4.57;;;3.50;99.90;;;;;;4120200;28;20121;-75
2021/01/26 06:17:20;;;;;;;9.20;3.15;;;3.50;99.90;;;;;;4119146;28;20657;-75
2021/01/26 06:19:20;;;;;;;8.68;3.50;;;3.60;99.90;;;;;;4117724;28;20161;-75
2021/01/26 06:21:21;;;;;;;10.73;3.28;;;3.60;99.90;;;;;;4123916;28;20059;-74
2021/01/26 06:23:27;;;;;;;11.25;3.15;;;3.70;99.90;;;;;;4118144;28;20433;-75
2021/01/26 06:25:33;;;;;;;11.40;3.35;;;3.60;99.90;;;;;;4114124;28;20038;-74
2021/01/26 06:27:39;;;;;;;9.43;3.35;;;3.50;99.90;;;;;;4106377;28;20094;-75
2021/01/26 06:30:14;;;;;;;13.25;3.50;;;3.50;99.90;;;;;;4094841;28;20115;-75
2021/01/26 06:32:31;;;;;;;13.02;3.22;;;3.50;99.90;;;;;;4085164;28;20495;-74
2021/01/26 06:34:58;;;;;;;19.10;4.30;;;3.50;99.90;;;;;;4090164;28;20663;-74
2021/01/26 06:37:14;;;;;;;9.13;3.10;;;3.60;99.90;;;;;;4086458;28;20048;-75
2021/01/26 06:39:27;;;;;;;11.48;3.42;;;3.50;99.90;;;;;;4099984;28;20054;-75
2021/01/26 06:41:51;;;;;;;12.82;3.88;;;3.50;99.90;;;;;;4108348;28;20067;-75
2021/01/26 06:44:37;;;;;;;7.57;3.03;;;3.50;99.90;;;;;;4110712;28;20145;-75
2021/01/26 06:47:12;;;;;;;9.63;3.42;;;3.50;99.90;;;;;;4101958;28;20046;-75
2021/01/26 06:49:38;;;;;;;7.97;3.60;;;3.60;99.90;;;;;;4119400;28;20397;-75
2021/01/26 06:52:00;;;;;;;12.65;3.70;;;3.60;99.90;;;;;;4106351;28;20024;-74
2021/01/26 06:54:30;;;;;;;5.90;2.97;;;3.60;99.90;;;;;;4098597;28;20027;-75
2021/01/26 06:56:43;;;;;;;11.93;3.35;;;3.60;99.90;;;;;;4102990;28;20051;-75
2021/01/26 06:59:21;;;;;;;5.43;2.85;;;3.60;99.90;;;;;;4105148;28;20078;-74
2021/01/26 07:02:07;;;;;;;3.58;2.63;;;3.60;99.90;;;;;;4100649;28;20493;-75
2021/01/26 07:04:18;;;;;;;7.65;2.88;;;3.70;99.90;;;;;;4123456;28;20128;-74
2021/01/26 07:06:42;;;;;;;6.15;3.10;;;3.60;99.90;;;;;;4147646;28;20060;-75
2021/01/26 07:09:08;;;;;;;8.20;2.90;;;3.60;99.90;;;;;;4106910;28;20088;-73
2021/01/26 07:11:32;;;;;;;6.13;2.35;;;3.60;99.90;;;;;;4116844;28;20081;-73
2021/01/26 07:14:10;;;;;;;6.75;3.70;;;3.60;99.90;;;;;;4117907;28;20023;-74
2021/01/26 07:16:47;;;;;;;9.00;4.63;;;3.50;99.90;;;;;;4105573;28;20061;-74
2021/01/26 07:19:02;;;;;;;5.85;2.90;;;3.40;99.90;;;;;;4121687;28;20037;-75
2021/01/26 07:21:29;;;;;;;5.93;2.47;;;3.40;99.90;;;;;;4118067;28;20038;-74
2021/01/26 07:24:07;;;;;;;6.05;3.70;;;3.30;99.90;;;;;;4115244;28;20039;-75
2021/01/26 07:26:50;;;;;;;7.70;3.78;;;3.20;99.90;;;;;;4113648;28;20041;-75
2021/01/26 07:29:03;;;;;;;8.50;4.05;;;3.10;99.90;;;;;;4110270;28;20173;-74
2021/01/26 07:31:47;;;;;;;13.23;3.38;;;3.10;99.90;;;;;;4113210;28;20039;-75
2021/01/26 07:34:14;;;;;;;8.50;3.97;;;3.10;99.90;;;;;;4118238;28;20035;-76
2021/01/26 07:36:26;;;;;;;7.88;3.67;;;3.20;99.90;;;;;;4106475;28;20361;-75
2021/01/26 07:38:42;;;;;;;6.60;3.22;;;3.40;99.90;;;;;;4105536;28;20032;-76
2021/01/26 07:41:05;;;;;;;13.02;3.55;;;3.40;99.90;;;;;;4112507;28;20054;-75
2021/01/26 07:43:18;;;;;;;8.93;3.70;;;3.40;99.90;;;;;;4118488;28;20027;-75
2021/01/26 07:45:33;;;;;;;7.65;3.20;;;3.50;99.90;;;;;;4129944;28;20465;-75
2021/01/26 07:47:42;;;;;;;10.02;3.75;;;3.50;99.90;;;;;;4112885;28;20475;-75
2021/01/26 07:49:53;;;;;;;5.72;3.42;;;3.50;99.90;;;;;;4115355;28;20047;-75
2021/01/26 07:51:58;;;;;;;8.63;3.17;;;3.50;99.90;;;;;;4108492;28;20027;-75
2021/01/26 07:54:15;;;;;;;8.70;4.25;;;3.50;99.90;;;;;;4128181;28;20509;-75
2021/01/26 07:56:31;;;;;;;11.13;4.28;;;3.50;99.90;;;;;;4128717;28;20402;-75
2021/01/26 07:58:32;;;;;;;7.88;3.15;;;3.40;99.90;;;;;;4124122;28;20029;-76
2021/01/26 08:00:40;;;;;;;10.82;3.35;;;3.50;99.90;;;;;;4127496;28;20549;-75
2021/01/26 08:02:45;;;;;;;9.30;3.50;;;3.50;99.90;;;;;;4116914;28;20101;-75
2021/01/26 08:04:46;;;;;;;7.43;2.85;;;3.50;99.90;;;;;;4112549;28;20030;-75
2021/01/26 08:06:56;;;;;;;5.90;3.58;;;3.40;99.90;;;;;;4117930;28;20112;-75
2021/01/26 08:08:57;;;;;;;15.60;3.20;;;3.30;99.90;;;;;;4118153;28;20034;-75
2021/01/26 08:11:24;;;;;;;11.88;3.50;;;3.30;99.90;;;;;;4125672;28;20026;-75
2021/01/26 08:13:27;;;;;;;7.03;3.25;;;3.20;99.90;;;;;;4124730;28;20117;-75
2021/01/26 08:15:32;;;;;;;10.00;3.77;;;3.00;99.90;;;;;;4127022;28;20054;-75
2021/01/26 08:17:35;;;;;;;14.50;3.72;;;3.00;99.90;;;;;;4126936;28;20054;-75
2021/01/26 08:19:41;;;;;;;13.70;4.35;;;3.00;99.90;;;;;;4125334;28;20031;-75
2021/01/26 08:21:44;;;;;;;10.15;4.53;;;3.00;99.90;;;;;;4128152;28;20458;-75
2021/01/26 08:23:45;;;;;;;8.70;3.67;;;3.00;99.90;;;;;;4146393;28;20109;-75
2021/01/26 08:25:47;;;;;;;10.23;4.32;;;3.20;99.90;;;;;;4121924;28;20031;-75
2021/01/26 08:27:47;;;;;;;9.80;4.50;;;3.30;99.90;;;;;;4120993;28;20070;-75
2021/01/26 08:29:48;;;;;;;11.23;4.13;;;3.40;99.90;;;;;;4139755;28;20044;-76
2021/01/26 08:31:49;;;;;;;12.65;3.90;;;3.60;99.90;;;;;;4123031;28;20042;-75
2021/01/26 08:33:55;;;;;;;8.73;3.55;;;3.60;99.90;;;;;;4117525;28;20034;-76
2021/01/26 08:36:07;;;;;;;9.70;3.50;;;3.60;99.90;;;;;;4122412;28;20042;-76
2021/01/26 08:38:09;;;;;;;10.57;3.90;;;3.60;99.90;;;;;;4097916;28;20051;-75
2021/01/26 08:40:15;;;;;;;8.05;3.45;;;3.50;99.90;;;;;;4096116;28;20123;-76
2021/01/26 08:42:41;;;;;;;9.95;3.50;;;3.50;99.90;;;;;;4109785;28;20082;-75
2021/01/26 08:44:46;;;;;;;11.77;4.20;;;3.60;99.90;;;;;;4116201;28;20077;-75
2021/01/26 08:46:50;;;;;;;8.95;3.65;;;3.70;99.90;;;;;;4106231;28;20042;-75
2021/01/26 08:49:19;;;;;;;10.75;4.38;;;3.90;99.90;;;;;;4099874;28;20502;-75
2021/01/26 08:51:25;;;;;;;7.97;3.75;;;4.00;99.90;;;;;;4096291;28;20055;-76
2021/01/26 08:53:28;;;;;;;8.98;3.85;;;4.20;99.90;;;;;;4101379;28;20031;-76
2021/01/26 08:55:33;;;;;;;15.00;4.28;;;4.30;99.90;;;;;;4096110;28;20060;-75
2021/01/26 08:57:34;;;;;;;8.27;4.90;;;4.30;99.90;;;;;;4087521;28;20035;-76
2021/01/26 08:59:34;;;;;;;10.32;3.55;;;4.40;99.90;;;;;;4099671;28;20032;-76
2021/01/26 09:01:35;;;;;;;12.05;3.55;;;4.40;99.90;;;;;;4088497;28;20459;-76
2021/01/26 09:03:37;;;;;;;10.63;3.42;;;4.40;99.90;;;;;;4087218;28;20102;-77
2021/01/26 09:05:40;;;;;;;8.32;3.25;;;4.40;99.90;;;;;;4085303;28;20042;-75
2021/01/26 09:08:07;;;;;;;6.35;3.25;;;4.40;99.90;;;;;;4105268;28;20050;-75
2021/01/26 09:10:24;;;;;;;9.38;3.47;;;4.40;99.90;;;;;;4099073;28;20387;-76
2021/01/26 09:12:26;;;;;;;9.43;3.72;;;4.50;99.90;;;;;;4101087;28;20045;-75
2021/01/26 09:14:37;;;;;;;6.18;3.40;;;4.60;99.90;;;;;;4096587;28;20130;-76
2021/01/26 09:16:38;;;;;;;14.30;6.00;;;4.60;99.90;;;;;;4098373;28;20027;-76
2021/01/26 09:18:40;;;;;;;9.48;2.88;;;4.60;99.90;;;;;;4097387;28;20058;-76
2021/01/26 09:20:43;;;;;;;10.10;3.60;;;4.60;99.90;;;;;;4096034;28;20035;-76
2021/01/26 09:22:43;;;;;;;6.35;2.83;;;4.70;99.90;;;;;;4107924;28;20031;-76
2021/01/26 09:24:45;;;;;;;10.30;3.28;;;4.70;99.90;;;;;;4104968;28;20162;-76
2021/01/26 09:26:46;;;;;;;7.25;3.00;;;4.80;99.90;;;;;;4111308;28;20031;-75
2021/01/26 09:28:49;;;;;;;6.75;3.22;;;4.80;99.90;;;;;;4105814;28;20042;-75
2021/01/26 09:30:59;;;;;;;7.32;3.47;;;4.80;99.90;;;;;;4096303;28;20032;-75
2021/01/26 09:33:14;;;;;;;5.50;2.88;;;4.80;99.90;;;;;;4096760;28;20027;-74
2021/01/26 09:35:24;;;;;;;12.48;3.38;;;4.90;99.90;;;;;;4102102;28;20026;-77
2021/01/26 09:37:24;;;;;;;10.45;3.13;;;4.90;99.90;;;;;;4094424;28;20189;-76
2021/01/26 09:39:25;;;;;;;8.98;3.08;;;5.00;99.90;;;;;;4094423;28;20031;-75
2021/01/26 09:41:32;;;;;;;10.80;4.20;;;5.00;99.90;;;;;;4098502;28;20491;-76
2021/01/26 09:43:38;;;;;;;8.15;2.85;;;5.00;99.90;;;;;;4093503;28;20482;-75
2021/01/26 09:45:40;;;;;;;8.13;3.00;;;5.10;99.90;;;;;;4100878;28;20070;-78
2021/01/26 09:47:42;;;;;;;8.00;3.47;;;5.10;99.90;;;;;;4110611;28;20799;-77
2021/01/26 09:49:42;;;;;;;10.07;3.33;;;5.10;99.90;;;;;;4111805;28;20046;-76
2021/01/26 09:51:51;;;;;;;13.80;3.97;;;5.10;99.90;;;;;;4097903;28;20651;-77
2021/01/26 09:54:01;;;;;;;7.50;3.55;;;5.20;99.90;;;;;;4098924;28;20023;-75
2021/01/26 09:56:03;;;;;;;5.53;2.70;;;5.20;99.90;;;;;;4099263;28;20035;-78
2021/01/26 09:58:04;;;;;;;7.00;2.93;;;5.30;99.90;;;;;;4100265;28;20507;-77
2021/01/26 10:00:10;;;;;;;12.52;4.65;;;5.40;99.90;;;;;;4118478;28;20137;-76
2021/01/26 10:02:16;;;;;;;9.98;3.67;;;5.40;99.90;;;;;;4106011;28;20034;-76
2021/01/26 10:04:21;;;;;;;5.97;2.70;;;5.50;99.90;;;;;;4101647;28;20035;-75
2021/01/26 10:06:22;;;;;;;9.00;3.88;;;5.50;99.90;;;;;;4101666;28;20383;-75
2021/01/26 10:08:31;;;;;;;8.70;2.90;;;5.50;99.90;;;;;;4101948;28;20027;-76
2021/01/26 10:10:32;;;;;;;5.15;2.60;;;5.60;99.90;;;;;;4098468;28;20146;-75
2021/01/26 10:12:38;;;;;;;6.93;3.25;;;5.70;99.90;;;;;;4096965;28;20031;-75
2021/01/26 10:14:38;;;;;;;8.25;4.18;;;5.70;99.90;;;;;;4099148;28;20094;-76
2021/01/26 10:16:40;;;;;;;8.18;3.05;;;5.80;99.90;;;;;;4098262;28;20043;-76
2021/01/26 10:18:41;;;;;;;13.35;4.40;;;5.80;99.90;;;;;;4099762;28;20364;-75
2021/01/26 10:20:45;;;;;;;15.30;4.25;;;5.80;99.90;;;;;;4104967;28;20097;-75
2021/01/26 10:22:45;;;;;;;;;;;5.90;99.90;;;;;;4104983;28;20202;-75
2021/01/26 10:24:46;;;;;;;13.00;3.95;;;5.90;99.90;;;;;;4118756;28;19915;-75
2021/01/26 10:26:48;;;;;;;9.57;3.22;;;6.00;99.90;;;;;;4113368;28;20130;-76
2021/01/26 10:29:14;;;;;;;8.77;2.90;;;6.00;99.90;;;;;;4112729;28;20065;-76
2021/01/26 10:31:19;;;;;;;6.90;2.67;;;6.00;99.90;;;;;;4091590;28;20083;-75
2021/01/26 10:33:49;;;;;;;11.15;3.38;;;6.10;99.90;;;;;;4103141;28;20077;-76
2021/01/26 10:35:49;;;;;;;7.32;3.42;;;6.20;99.90;;;;;;4111048;28;20039;-77
2021/01/26 10:37:50;;;;;;;8.35;3.33;;;6.30;99.90;;;;;;4097357;28;20482;-76
2021/01/26 10:40:13;;;;;;;5.95;3.17;;;6.40;99.90;;;;;;4096896;28;20035;-76
2021/01/26 10:42:22;;;;;;;6.57;2.78;;;6.50;99.90;;;;;;4100625;28;20113;-76
2021/01/26 10:44:23;;;;;;;7.90;3.55;;;6.60;99.90;;;;;;4102246;28;20035;-76
2021/01/26 10:46:32;;;;;;;10.90;3.47;;;6.60;99.90;;;;;;4102559;28;20023;-76
2021/01/26 10:48:35;;;;;;;9.13;3.22;;;6.60;99.90;;;;;;4105694;28;20030;-77
2021/01/26 10:50:37;;;;;;;15.15;3.22;;;6.60;99.90;;;;;;4103653;28;20410;-76
2021/01/26 10:52:44;;;;;;;13.93;4.22;;;6.80;99.90;;;;;;4103094;28;20034;-77
2021/01/26 10:54:45;;;;;;;11.63;3.17;;;6.90;99.90;;;;;;4103714;28;20091;-77
2021/01/26 10:56:46;;;;;;;10.35;3.75;;;7.00;99.90;;;;;;4102177;28;20072;-78
2021/01/26 10:58:48;;;;;;;9.15;3.53;;;7.00;99.90;;;;;;4097497;28;20027;-78
2021/01/26 11:00:51;;;;;;;5.57;3.03;;;6.90;99.90;;;;;;4099405;28;20571;-74
2021/01/26 11:02:53;;;;;;;12.55;3.47;;;7.00;99.90;;;;;;4098365;28;20023;-77
2021/01/26 11:04:54;;;;;;;14.77;3.40;;;7.00;99.90;;;;;;4099089;28;20035;-76
2021/01/26 11:06:55;;;;;;;11.93;3.72;;;7.10;99.90;;;;;;4099159;28;20042;-76
2021/01/26 11:08:55;;;;;;;8.45;3.13;;;7.20;99.90;;;;;;4099410;28;20034;-77
2021/01/26 11:10:56;;;;;;;13.85;4.63;;;7.30;99.90;;;;;;4104837;28;20376;-77
2021/01/26 11:12:57;;;;;;;9.63;3.03;;;7.30;99.90;;;;;;4108097;28;20383;-76
2021/01/26 11:14:57;;;;;;;12.68;3.33;;;7.20;99.90;;;;;;4103539;28;20458;-75